Time;durP1;ratioP1;P1;durP2;ratioP2;P2;SDS_P1;SDS_P2;PMS_P1;PMS_P2;Temp;Humidity;BMP_temperature;BMP_pressure;BME280_temperature;BME280_humidity;BME280_pressure;Samples;Min_cycle;Max_cycle;Signal;HPM_P1;HPM_P2
2022/11/13 00:01:59;;;;;;;23.40;21.00;;;;;;;;;;5110307;27;20039;-76
2022/11/13 00:04:25;;;;;;;22.70;20.35;;;;;;;;;;5127857;27;20046;-76
2022/11/13 00:06:51;;;;;;;22.88;20.38;;;;;;;;;;5114153;27;20494;-76
2022/11/13 00:09:17;;;;;;;22.17;19.58;;;;;;;;;;5126184;27;20051;-76
2022/11/13 00:11:43;;;;;;;23.55;19.88;;;;;;;;;;5127613;27;20044;-76
2022/11/13 00:14:09;;;;;;;21.20;19.05;;;;;;;;;;5128839;27;20046;-76
2022/11/13 00:16:38;;;;;;;21.73;19.33;;;;;;;;;;5107206;27;20493;-76
2022/11/13 00:19:04;;;;;;;22.90;20.45;;;;;;;;;;5105203;27;20047;-77
2022/11/13 00:21:30;;;;;;;22.55;20.33;;;;;;;;;;5122959;27;20043;-77
2022/11/13 00:23:59;;;;;;;23.35;20.52;;;;;;;;;;5128962;27;20406;-77
2022/11/13 00:26:26;;;;;;;23.38;20.88;;;;;;;;;;5104454;27;20383;-77
2022/11/13 00:28:53;;;;;;;21.90;19.58;;;;;;;;;;5106236;27;20440;-77
2022/11/13 00:31:19;;;;;;;22.63;19.42;;;;;;;;;;5111960;27;20508;-77
2022/11/13 00:33:46;;;;;;;22.05;19.73;;;;;;;;;;5121129;27;21033;-77
2022/11/13 00:36:19;;;;;;;23.10;20.17;;;;;;;;;;5121863;27;20046;-77
2022/11/13 00:38:45;;;;;;;21.30;18.92;;;;;;;;;;5110155;27;20051;-77
2022/11/13 00:41:11;;;;;;;22.20;19.90;;;;;;;;;;5130990;27;20035;-77
2022/11/13 00:43:38;;;;;;;22.88;20.08;;;;;;;;;;5113772;27;20039;-77
2022/11/13 00:46:04;;;;;;;21.83;19.52;;;;;;;;;;5143987;27;20044;-77
2022/11/13 00:48:30;;;;;;;20.70;18.63;;;;;;;;;;5127643;27;20051;-77
2022/11/13 00:50:56;;;;;;;21.05;18.85;;;;;;;;;;5109510;27;20024;-77
2022/11/13 00:53:25;;;;;;;20.40;18.33;;;;;;;;;;5102935;27;20482;-77
2022/11/13 00:55:51;;;;;;;20.98;18.77;;;;;;;;;;5110181;27;20489;-77
2022/11/13 00:58:17;;;;;;;19.88;17.88;;;;;;;;;;5125510;27;20043;-77
2022/11/13 01:00:44;;;;;;;21.27;18.75;;;;;;;;;;5123805;27;20047;-77
2022/11/13 01:03:11;;;;;;;21.23;18.38;;;;;;;;;;5127902;27;20161;-77
2022/11/13 01:05:41;;;;;;;19.98;17.67;;;;;;;;;;5103617;27;20542;-76
2022/11/13 01:08:08;;;;;;;20.67;18.48;;;;;;;;;;5115352;27;20040;-77
2022/11/13 01:10:37;;;;;;;19.58;17.50;;;;;;;;;;5101592;27;20067;-77
2022/11/13 01:13:03;;;;;;;21.45;19.23;;;;;;;;;;5110260;27;20070;-77
2022/11/13 01:15:29;;;;;;;22.23;18.90;;;;;;;;;;5119519;27;20049;-77
2022/11/13 01:17:55;;;;;;;22.15;19.75;;;;;;;;;;5127507;27;20050;-77
2022/11/13 01:20:22;;;;;;;22.77;19.08;;;;;;;;;;5100049;27;20051;-77
2022/11/13 01:22:48;;;;;;;21.20;18.92;;;;;;;;;;5125690;27;20039;-77
2022/11/13 01:25:14;;;;;;;21.45;19.23;;;;;;;;;;5137154;27;20047;-77
2022/11/13 01:27:40;;;;;;;23.63;20.33;;;;;;;;;;5118575;27;22105;-77
2022/11/13 01:30:10;;;;;;;21.73;19.17;;;;;;;;;;5107004;27;20042;-77
2022/11/13 01:32:36;;;;;;;21.10;18.90;;;;;;;;;;5105653;27;20043;-77
2022/11/13 01:35:02;;;;;;;23.15;19.30;;;;;;;;;;5106989;27;20126;-77
2022/11/13 01:37:28;;;;;;;22.63;20.30;;;;;;;;;;5103288;28;20043;-77
2022/11/13 01:39:54;;;;;;;21.98;19.65;;;;;;;;;;5106870;28;20044;-77
2022/11/13 01:42:20;;;;;;;23.02;19.90;;;;;;;;;;5104043;28;20035;-77
2022/11/13 01:44:46;;;;;;;22.88;19.98;;;;;;;;;;5107837;28;20170;-77
2022/11/13 01:47:12;;;;;;;22.40;20.13;;;;;;;;;;5098845;28;20471;-77
2022/11/13 01:49:39;;;;;;;21.60;19.30;;;;;;;;;;5098019;28;20040;-77
2022/11/13 01:52:29;;;;;;;21.20;18.95;;;;;;;;;;5099709;28;20035;-77
2022/11/13 01:54:57;;;;;;;21.90;19.45;;;;;;;;;;5097013;28;21170;-77
2022/11/13 01:57:23;;;;;;;22.48;20.08;;;;;;;;;;5104198;28;20039;-77
2022/11/13 01:59:52;;;;;;;21.65;19.13;;;;;;;;;;5101854;28;20063;-77
2022/11/13 02:02:18;;;;;;;21.08;18.90;;;;;;;;;;5109106;27;20108;-77
2022/11/13 02:04:44;;;;;;;21.92;19.10;;;;;;;;;;5110311;28;20035;-77
2022/11/13 02:07:12;;;;;;;20.65;18.48;;;;;;;;;;5107106;27;20051;-76
2022/11/13 02:09:40;;;;;;;22.02;19.00;;;;;;;;;;5101450;28;20036;-77
2022/11/13 02:12:08;;;;;;;21.73;19.52;;;;;;;;;;5105682;28;20372;-77
2022/11/13 02:14:35;;;;;;;20.38;18.23;;;;;;;;;;5110196;28;20039;-77
2022/11/13 02:17:04;;;;;;;21.00;18.63;;;;;;;;;;5104737;27;20032;-77
2022/11/13 02:19:36;;;;;;;20.50;18.30;;;;;;;;;;5109974;27;20047;-77
2022/11/13 02:22:09;;;;;;;21.38;18.83;;;;;;;;;;5114837;27;20035;-77
2022/11/13 02:24:40;;;;;;;22.83;20.00;;;;;;;;;;5101452;27;20047;-77
2022/11/13 02:27:08;;;;;;;21.75;19.48;;;;;;;;;;5107304;28;20080;-77
2022/11/13 02:29:34;;;;;;;21.20;19.00;;;;;;;;;;5107776;27;20075;-77
2022/11/13 02:32:00;;;;;;;21.45;19.23;;;;;;;;;;5103143;27;20443;-77
2022/11/13 02:34:26;;;;;;;21.25;19.05;;;;;;;;;;5119906;27;20058;-77
2022/11/13 02:36:52;;;;;;;20.35;18.35;;;;;;;;;;5128741;27;20551;-77
2022/11/13 02:39:20;;;;;;;21.92;19.70;;;;;;;;;;5115043;27;20162;-77
2022/11/13 02:41:46;;;;;;;21.20;18.85;;;;;;;;;;5107064;27;20055;-77
2022/11/13 02:44:12;;;;;;;20.90;18.70;;;;;;;;;;5133312;27;20040;-77
2022/11/13 02:46:38;;;;;;;21.08;18.85;;;;;;;;;;5123443;27;20062;-77
2022/11/13 02:49:04;;;;;;;22.05;19.75;;;;;;;;;;5147579;27;20053;-77
2022/11/13 02:51:30;;;;;;;21.08;18.70;;;;;;;;;;5127489;27;20501;-77
2022/11/13 02:53:56;;;;;;;22.83;20.45;;;;;;;;;;5113064;27;20055;-77
2022/11/13 02:56:22;;;;;;;23.42;20.83;;;;;;;;;;5126871;27;20042;-77
2022/11/13 02:58:48;;;;;;;26.10;21.83;;;;;;;;;;5102018;27;20065;-76
2022/11/13 03:01:14;;;;;;;23.23;20.30;;;;;;;;;;5111262;27;20054;-76
2022/11/13 03:03:40;;;;;;;24.75;21.23;;;;;;;;;;5107313;27;20047;-76
2022/11/13 03:06:06;;;;;;;22.80;20.35;;;;;;;;;;5111104;27;20492;-76
2022/11/13 03:08:32;;;;;;;24.58;19.52;;;;;;;;;;5112538;27;20080;-76
2022/11/13 03:10:58;;;;;;;22.63;18.80;;;;;;;;;;5115289;27;20081;-77
2022/11/13 03:13:24;;;;;;;21.70;19.55;;;;;;;;;;5114711;27;20039;-76
2022/11/13 03:15:50;;;;;;;22.20;18.65;;;;;;;;;;5122079;27;20172;-76
2022/11/13 03:18:16;;;;;;;18.73;16.83;;;;;;;;;;5123216;27;20529;-76
2022/11/13 03:20:43;;;;;;;20.13;18.02;;;;;;;;;;5126533;27;20047;-76
2022/11/13 03:23:09;;;;;;;21.30;17.67;;;;;;;;;;5106270;27;20220;-76
2022/11/13 03:25:35;;;;;;;20.30;18.20;;;;;;;;;;5110241;27;20042;-76
2022/11/13 03:28:01;;;;;;;19.45;17.45;;;;;;;;;;5108720;27;20054;-77
2022/11/13 03:30:27;;;;;;;20.63;18.45;;;;;;;;;;5126063;27;20031;-76
2022/11/13 03:32:54;;;;;;;20.13;17.88;;;;;;;;;;5110329;27;20047;-77
2022/11/13 03:35:21;;;;;;;19.90;17.50;;;;;;;;;;5112009;27;20053;-76
2022/11/13 03:37:47;;;;;;;20.20;18.10;;;;;;;;;;5103716;27;20773;-76
2022/11/13 03:40:13;;;;;;;19.48;17.50;;;;;;;;;;5131156;27;20138;-76
2022/11/13 03:42:39;;;;;;;21.05;18.27;;;;;;;;;;5128599;27;20039;-76
2022/11/13 03:45:05;;;;;;;20.23;17.50;;;;;;;;;;5118527;27;20133;-77
2022/11/13 03:47:31;;;;;;;19.77;17.73;;;;;;;;;;5106075;27;20042;-77
2022/11/13 03:49:57;;;;;;;20.23;18.08;;;;;;;;;;5105715;27;20046;-76
2022/11/13 03:52:23;;;;;;;21.30;17.60;;;;;;;;;;5129839;27;20027;-78
2022/11/13 03:54:49;;;;;;;20.67;18.40;;;;;;;;;;5108502;27;20047;-76
2022/11/13 03:57:15;;;;;;;20.13;17.92;;;;;;;;;;5103473;27;20039;-77
2022/11/13 03:59:41;;;;;;;20.83;18.58;;;;;;;;;;5129249;27;20046;-76
2022/11/13 04:02:07;;;;;;;20.25;18.00;;;;;;;;;;5124118;27;20031;-76
2022/11/13 04:04:33;;;;;;;20.40;18.30;;;;;;;;;;5105694;27;20495;-76
2022/11/13 04:06:59;;;;;;;21.38;18.45;;;;;;;;;;5127188;27;20065;-76
2022/11/13 04:09:25;;;;;;;21.17;18.98;;;;;;;;;;5109213;27;20035;-76
2022/11/13 04:11:51;;;;;;;21.58;18.25;;;;;;;;;;5113302;27;20074;-76
2022/11/13 04:14:17;;;;;;;19.92;17.70;;;;;;;;;;5129681;27;20044;-77
2022/11/13 04:16:43;;;;;;;19.63;17.50;;;;;;;;;;5126230;27;20487;-76
2022/11/13 04:19:09;;;;;;;20.80;18.50;;;;;;;;;;5129102;27;20054;-76
2022/11/13 04:21:35;;;;;;;19.90;17.42;;;;;;;;;;5111431;27;20103;-76
2022/11/13 04:24:01;;;;;;;21.02;17.77;;;;;;;;;;5128373;27;20134;-76
2022/11/13 04:26:27;;;;;;;17.77;15.98;;;;;;;;;;5130044;27;20133;-76
2022/11/13 04:28:53;;;;;;;19.80;17.23;;;;;;;;;;5101537;27;20069;-76
2022/11/13 04:31:19;;;;;;;19.75;17.80;;;;;;;;;;5128403;27;20043;-76
2022/11/13 04:33:45;;;;;;;18.25;16.38;;;;;;;;;;5131935;27;20050;-76
2022/11/13 04:36:11;;;;;;;19.08;17.10;;;;;;;;;;5121889;27;20044;-76
2022/11/13 04:38:37;;;;;;;20.02;17.65;;;;;;;;;;5114919;27;20050;-76
2022/11/13 04:43:48;;;;;;;20.52;17.75;;;;;;;;;;5110565;27;20050;-76
2022/11/13 04:46:14;;;;;;;18.83;16.40;;;;;;;;;;5104741;27;20547;-77
2022/11/13 04:48:40;;;;;;;19.75;17.15;;;;;;;;;;5105617;27;20147;-77
2022/11/13 04:51:06;;;;;;;20.08;17.33;;;;;;;;;;5112751;27;20047;-76
2022/11/13 04:53:33;;;;;;;18.67;16.67;;;;;;;;;;5107282;27;20039;-77
2022/11/13 04:55:59;;;;;;;19.55;16.58;;;;;;;;;;5112937;27;20051;-76
2022/11/13 04:58:28;;;;;;;19.00;17.17;;;;;;;;;;5120619;27;20054;-76
2022/11/13 05:00:57;;;;;;;19.02;16.55;;;;;;;;;;5129641;27;20379;-76
2022/11/13 05:03:23;;;;;;;19.85;17.73;;;;;;;;;;5124824;27;20269;-76
2022/11/13 05:05:49;;;;;;;18.30;15.95;;;;;;;;;;5106804;27;20095;-76
2022/11/13 05:08:15;;;;;;;18.77;16.70;;;;;;;;;;5105656;27;20138;-76
2022/11/13 05:10:41;;;;;;;18.17;16.20;;;;;;;;;;5111671;27;20380;-76
2022/11/13 05:13:07;;;;;;;19.35;17.27;;;;;;;;;;5111056;27;20398;-76
2022/11/13 05:15:33;;;;;;;19.15;17.15;;;;;;;;;;5140149;27;20047;-76
2022/11/13 05:17:59;;;;;;;20.02;17.08;;;;;;;;;;5126554;27;20158;-76
2022/11/13 05:20:25;;;;;;;19.45;16.60;;;;;;;;;;5120739;27;20390;-76
2022/11/13 05:22:51;;;;;;;19.30;17.30;;;;;;;;;;5108580;27;20045;-76
2022/11/13 05:25:17;;;;;;;19.63;17.52;;;;;;;;;;5135677;27;20042;-76
2022/11/13 05:27:43;;;;;;;18.75;16.75;;;;;;;;;;5103135;27;20051;-76
2022/11/13 05:30:09;;;;;;;18.88;16.83;;;;;;;;;;5112793;27;20083;-77
2022/11/13 05:32:35;;;;;;;19.20;17.15;;;;;;;;;;5109293;28;20043;-76
2022/11/13 05:35:01;;;;;;;20.30;15.43;;;;;;;;;;5113469;27;20068;-76
2022/11/13 05:37:28;;;;;;;19.63;17.23;;;;;;;;;;5106619;27;20437;-76
2022/11/13 05:39:54;;;;;;;19.25;17.23;;;;;;;;;;5124113;27;20455;-76
2022/11/13 05:42:20;;;;;;;18.17;16.00;;;;;;;;;;5112168;28;20054;-76
2022/11/13 05:44:46;;;;;;;20.45;18.15;;;;;;;;;;5110750;28;20394;-76
2022/11/13 05:47:12;;;;;;;20.73;17.15;;;;;;;;;;5119494;27;20039;-76
2022/11/13 05:49:38;;;;;;;19.92;17.83;;;;;;;;;;5104280;28;20050;-76
2022/11/13 05:52:04;;;;;;;20.10;17.42;;;;;;;;;;5127054;27;20142;-77
2022/11/13 05:54:30;;;;;;;20.50;18.40;;;;;;;;;;5105485;27;20452;-76
2022/11/13 05:56:56;;;;;;;19.38;17.27;;;;;;;;;;5117986;27;20099;-76
2022/11/13 05:59:22;;;;;;;19.83;17.75;;;;;;;;;;5123769;27;20080;-76
2022/11/13 06:01:48;;;;;;;20.65;18.10;;;;;;;;;;5107522;27;20051;-77
2022/11/13 06:04:14;;;;;;;20.10;17.90;;;;;;;;;;5108396;28;20637;-76
2022/11/13 06:06:41;;;;;;;20.33;18.02;;;;;;;;;;5119767;27;20054;-76
2022/11/13 06:09:07;;;;;;;19.63;17.55;;;;;;;;;;5112125;28;20043;-76
2022/11/13 06:11:33;;;;;;;21.40;18.77;;;;;;;;;;5112293;27;20046;-76
2022/11/13 06:13:59;;;;;;;22.20;19.80;;;;;;;;;;5112013;28;20043;-76
2022/11/13 06:16:27;;;;;;;20.65;18.55;;;;;;;;;;5108037;28;20054;-76
2022/11/13 06:18:55;;;;;;;21.05;17.98;;;;;;;;;;5101574;27;21300;-76
2022/11/13 06:21:22;;;;;;;23.95;17.98;;;;;;;;;;5111382;27;20070;-76
2022/11/13 06:23:48;;;;;;;20.58;18.23;;;;;;;;;;5109615;27;20545;-77
2022/11/13 06:26:16;;;;;;;22.17;19.20;;;;;;;;;;5102134;28;20062;-76
2022/11/13 06:28:42;;;;;;;20.25;18.10;;;;;;;;;;5114133;27;20129;-77
2022/11/13 06:31:09;;;;;;;20.98;18.75;;;;;;;;;;5111520;28;20054;-76
2022/11/13 06:33:36;;;;;;;21.40;18.23;;;;;;;;;;5110888;28;20039;-77
2022/11/13 06:36:03;;;;;;;19.73;17.63;;;;;;;;;;5101012;28;20050;-76
2022/11/13 06:38:32;;;;;;;21.30;18.05;;;;;;;;;;5120627;27;20039;-76
2022/11/13 06:40:59;;;;;;;22.02;18.98;;;;;;;;;;5104093;28;20038;-76
2022/11/13 06:43:25;;;;;;;20.40;18.13;;;;;;;;;;5109714;28;20106;-76
2022/11/13 06:45:51;;;;;;;21.40;18.85;;;;;;;;;;5119324;27;20043;-77
2022/11/13 06:48:17;;;;;;;22.50;18.70;;;;;;;;;;5132402;27;20039;-76
2022/11/13 06:50:43;;;;;;;22.08;19.77;;;;;;;;;;5123204;27;20061;-76
2022/11/13 06:53:09;;;;;;;21.83;19.20;;;;;;;;;;5128658;27;20054;-76
2022/11/13 06:55:35;;;;;;;21.95;19.65;;;;;;;;;;5103328;27;20043;-76
2022/11/13 06:58:01;;;;;;;23.38;19.70;;;;;;;;;;5113642;27;20054;-77
2022/11/13 07:00:27;;;;;;;21.77;18.63;;;;;;;;;;5124404;27;20039;-76
2022/11/13 07:02:53;;;;;;;20.67;18.48;;;;;;;;;;5111463;27;20046;-76
2022/11/13 07:05:19;;;;;;;20.42;18.23;;;;;;;;;;5101440;27;20046;-76
2022/11/13 07:07:45;;;;;;;21.75;19.45;;;;;;;;;;5110859;27;20059;-76
2022/11/13 07:10:11;;;;;;;20.85;18.58;;;;;;;;;;5129089;27;20039;-77
2022/11/13 07:12:37;;;;;;;21.95;19.65;;;;;;;;;;5131150;27;20156;-77
2022/11/13 07:15:03;;;;;;;21.63;19.05;;;;;;;;;;5105062;27;20078;-76
2022/11/13 07:17:30;;;;;;;22.30;19.48;;;;;;;;;;5122954;27;20080;-76
2022/11/13 07:19:55;;;;;;;20.85;18.52;;;;;;;;;;5109929;27;20035;-77
2022/11/13 07:22:21;;;;;;;21.75;19.15;;;;;;;;;;5108743;27;20417;-76
2022/11/13 07:24:47;;;;;;;22.45;19.80;;;;;;;;;;5128423;27;20070;-76
2022/11/13 07:27:13;;;;;;;21.10;18.90;;;;;;;;;;5106263;27;20043;-76
2022/11/13 07:29:39;;;;;;;22.00;18.65;;;;;;;;;;5130341;27;20081;-77
2022/11/13 07:32:05;;;;;;;22.58;18.98;;;;;;;;;;5110890;27;20051;-76
2022/11/13 07:34:31;;;;;;;21.45;19.15;;;;;;;;;;5101826;27;20050;-76
2022/11/13 07:36:57;;;;;;;21.33;19.13;;;;;;;;;;5105269;27;20510;-76
2022/11/13 07:39:23;;;;;;;22.45;18.98;;;;;;;;;;5129574;27;20043;-76
2022/11/13 07:41:49;;;;;;;22.17;19.02;;;;;;;;;;5124790;27;20055;-76
2022/11/13 07:44:15;;;;;;;22.02;19.23;;;;;;;;;;5109561;27;20044;-76
2022/11/13 07:46:41;;;;;;;22.13;19.58;;;;;;;;;;5106789;27;20097;-76
2022/11/13 07:49:07;;;;;;;24.17;19.95;;;;;;;;;;5123850;27;20043;-76
2022/11/13 07:51:33;;;;;;;21.42;19.15;;;;;;;;;;5102971;27;20480;-76
2022/11/13 07:54:02;;;;;;;21.77;19.48;;;;;;;;;;5118923;27;20051;-76
2022/11/13 07:56:28;;;;;;;21.30;19.00;;;;;;;;;;5129227;27;20039;-76
2022/11/13 07:58:54;;;;;;;22.40;18.83;;;;;;;;;;5114178;27;20054;-76
2022/11/13 08:01:20;;;;;;;22.48;19.95;;;;;;;;;;5123069;27;20028;-76
2022/11/13 08:03:46;;;;;;;21.00;18.33;;;;;;;;;;5104908;27;20134;-77
2022/11/13 08:06:12;;;;;;;22.20;19.08;;;;;;;;;;5126004;27;20553;-76
2022/11/13 08:08:38;;;;;;;21.20;18.13;;;;;;;;;;5105343;27;20638;-76
2022/11/13 08:11:06;;;;;;;22.52;19.83;;;;;;;;;;5109901;27;20076;-77
2022/11/13 08:13:33;;;;;;;21.15;18.67;;;;;;;;;;5127829;27;20043;-76
2022/11/13 08:16:00;;;;;;;21.25;18.98;;;;;;;;;;5123589;27;20066;-76
2022/11/13 08:18:27;;;;;;;20.02;17.90;;;;;;;;;;5107126;27;20046;-77
2022/11/13 08:20:53;;;;;;;22.50;19.23;;;;;;;;;;5136806;27;20066;-76
2022/11/13 08:23:19;;;;;;;20.92;18.13;;;;;;;;;;5101864;27;20042;-76
2022/11/13 08:25:45;;;;;;;22.08;19.33;;;;;;;;;;5132421;27;20050;-77
2022/11/13 08:28:11;;;;;;;20.83;18.65;;;;;;;;;;5138876;27;20039;-76
2022/11/13 08:30:37;;;;;;;20.73;18.52;;;;;;;;;;5131151;27;20054;-77
2022/11/13 08:33:03;;;;;;;21.70;19.42;;;;;;;;;;5096076;28;20423;-76
2022/11/13 08:35:30;;;;;;;20.95;18.73;;;;;;;;;;5095206;28;20090;-76
2022/11/13 08:38:02;;;;;;;21.50;19.33;;;;;;;;;;5103253;27;21116;-77
2022/11/13 08:40:28;;;;;;;21.20;18.33;;;;;;;;;;5117960;27;20043;-76
2022/11/13 08:42:58;;;;;;;21.52;18.80;;;;;;;;;;5105323;27;20101;-76
2022/11/13 08:45:24;;;;;;;20.85;18.75;;;;;;;;;;5103339;27;20050;-77
2022/11/13 08:47:51;;;;;;;21.70;19.40;;;;;;;;;;5106869;27;20451;-77
2022/11/13 08:50:17;;;;;;;21.40;19.17;;;;;;;;;;5101775;28;20089;-77
2022/11/13 08:52:43;;;;;;;22.83;18.70;;;;;;;;;;5103752;27;20048;-77
2022/11/13 08:55:09;;;;;;;21.02;18.85;;;;;;;;;;5105337;27;20475;-77
2022/11/13 08:57:35;;;;;;;22.48;19.05;;;;;;;;;;5101006;27;20039;-77
2022/11/13 09:00:01;;;;;;;21.20;18.75;;;;;;;;;;5102065;27;20050;-77
2022/11/13 09:02:27;;;;;;;20.30;18.25;;;;;;;;;;5105096;27;20084;-77
2022/11/13 09:04:53;;;;;;;21.27;19.08;;;;;;;;;;5098644;28;20044;-77
2022/11/13 09:07:19;;;;;;;20.33;18.17;;;;;;;;;;5102104;28;20528;-77
2022/11/13 09:09:45;;;;;;;19.52;17.50;;;;;;;;;;5103848;28;20093;-77
2022/11/13 09:12:11;;;;;;;19.85;17.77;;;;;;;;;;5101809;27;20167;-77
2022/11/13 09:14:37;;;;;;;19.92;17.83;;;;;;;;;;5096920;28;20540;-77
2022/11/13 09:17:04;;;;;;;20.35;18.25;;;;;;;;;;5104626;27;20446;-77
2022/11/13 09:19:30;;;;;;;20.85;17.42;;;;;;;;;;5105384;27;20071;-77
2022/11/13 09:21:56;;;;;;;21.25;18.70;;;;;;;;;;5104792;27;20095;-77
2022/11/13 09:24:22;;;;;;;19.73;17.55;;;;;;;;;;5106937;28;20127;-77
2022/11/13 09:26:48;;;;;;;18.92;16.90;;;;;;;;;;5099052;28;20126;-78
2022/11/13 09:29:14;;;;;;;18.77;16.88;;;;;;;;;;5105232;28;20051;-76
2022/11/13 09:31:40;;;;;;;19.25;17.17;;;;;;;;;;5103836;28;20496;-77
2022/11/13 09:34:06;;;;;;;20.52;18.27;;;;;;;;;;5110728;28;20055;-78
2022/11/13 09:36:32;;;;;;;19.42;17.38;;;;;;;;;;5106396;28;20048;-77
2022/11/13 09:39:01;;;;;;;18.33;16.30;;;;;;;;;;5116187;27;20044;-76
2022/11/13 09:41:34;;;;;;;18.05;16.17;;;;;;;;;;5107688;27;20717;-75
2022/11/13 09:44:02;;;;;;;18.60;16.75;;;;;;;;;;5097829;28;20393;-75
2022/11/13 09:46:46;;;;;;;18.38;16.35;;;;;;;;;;5107433;28;20043;-74
2022/11/13 09:49:32;;;;;;;17.02;15.18;;;;;;;;;;5099771;28;20618;-74
2022/11/13 09:52:05;;;;;;;17.35;15.57;;;;;;;;;;5113030;28;20487;-78
2022/11/13 09:54:31;;;;;;;17.50;15.70;;;;;;;;;;5102229;28;20436;-80
2022/11/13 09:57:15;;;;;;;15.48;13.98;;;;;;;;;;5108577;28;20067;-76
2022/11/13 09:59:48;;;;;;;15.60;14.00;;;;;;;;;;5103795;28;20055;-74
2022/11/13 10:02:20;;;;;;;15.25;13.75;;;;;;;;;;5105759;28;20035;-77
2022/11/13 10:04:54;;;;;;;17.23;15.25;;;;;;;;;;5104350;28;20042;-77
2022/11/13 10:07:19;;;;;;;;;;;;;;;;;;5110724;28;20058;-77
2022/11/13 10:10:09;;;;;;;15.98;13.32;;;;;;;;;;5098482;28;20270;-76
2022/11/13 10:12:35;;;;;;;14.30;12.80;;;;;;;;;;5106498;28;20047;-78
2022/11/13 10:15:02;;;;;;;14.55;13.07;;;;;;;;;;5095044;28;20040;-78
2022/11/13 10:17:32;;;;;;;14.68;13.18;;;;;;;;;;5107825;28;20126;-78
2022/11/13 10:20:03;;;;;;;14.98;13.38;;;;;;;;;;5096282;28;20094;-78
2022/11/13 10:22:41;;;;;;;14.32;12.50;;;;;;;;;;5107257;28;20047;-78
2022/11/13 10:25:12;;;;;;;14.98;13.40;;;;;;;;;;5099854;28;20095;-78
2022/11/13 10:27:38;;;;;;;14.10;12.60;;;;;;;;;;5107178;27;20044;-78
2022/11/13 10:30:11;;;;;;;18.35;16.40;;;;;;;;;;5105202;28;20079;-78
2022/11/13 10:32:37;;;;;;;14.60;13.10;;;;;;;;;;5109994;28;20044;-78
2022/11/13 10:35:06;;;;;;;14.10;12.70;;;;;;;;;;5107796;28;20043;-78
2022/11/13 10:37:41;;;;;;;15.65;14.07;;;;;;;;;;5113216;28;20054;-79
2022/11/13 10:40:07;;;;;;;14.48;12.68;;;;;;;;;;5100915;28;20048;-78
2022/11/13 10:42:41;;;;;;;14.73;13.23;;;;;;;;;;5112214;28;20036;-77
2022/11/13 10:45:14;;;;;;;13.70;12.30;;;;;;;;;;5105403;28;20044;-78
2022/11/13 10:47:50;;;;;;;13.63;12.23;;;;;;;;;;5108636;28;20039;-78
2022/11/13 10:50:24;;;;;;;13.43;11.95;;;;;;;;;;5107058;27;20047;-78
2022/11/13 10:52:50;;;;;;;;;;;;;;;;;;5110591;27;20035;-78
2022/11/13 10:55:27;;;;;;;13.05;11.65;;;;;;;;;;5105513;28;19934;-78
2022/11/13 10:57:57;;;;;;;12.77;11.55;;;;;;;;;;5107911;27;20044;-78
2022/11/13 11:00:29;;;;;;;12.95;11.18;;;;;;;;;;5116631;27;21277;-78
2022/11/13 11:02:55;;;;;;;13.30;11.90;;;;;;;;;;5114290;27;20609;-78
2022/11/13 11:05:23;;;;;;;13.02;11.73;;;;;;;;;;5110875;27;20071;-77
2022/11/13 11:07:50;;;;;;;13.75;12.35;;;;;;;;;;5111253;27;20040;-77
2022/11/13 11:10:19;;;;;;;13.82;12.43;;;;;;;;;;5112344;27;20532;-77
2022/11/13 11:12:50;;;;;;;13.40;12.00;;;;;;;;;;5108868;28;20055;-77
2022/11/13 11:15:19;;;;;;;14.13;12.32;;;;;;;;;;5110379;27;20446;-78
2022/11/13 11:17:47;;;;;;;14.32;12.93;;;;;;;;;;5106944;27;20077;-77
2022/11/13 11:20:28;;;;;;;13.63;11.50;;;;;;;;;;5106785;27;20043;-77
2022/11/13 11:22:58;;;;;;;12.95;11.10;;;;;;;;;;5108494;27;20156;-78
2022/11/13 11:25:27;;;;;;;14.15;12.48;;;;;;;;;;5106206;27;20047;-78
2022/11/13 11:28:00;;;;;;;14.20;12.20;;;;;;;;;;5103779;28;20047;-77
2022/11/13 11:30:28;;;;;;;14.23;12.13;;;;;;;;;;5111109;27;20469;-77
2022/11/13 11:33:04;;;;;;;13.73;12.32;;;;;;;;;;5108619;28;20553;-78
2022/11/13 11:35:30;;;;;;;14.15;12.65;;;;;;;;;;5106388;27;20052;-77
2022/11/13 11:38:19;;;;;;;14.68;13.18;;;;;;;;;;5101778;27;20036;-77
2022/11/13 11:40:47;;;;;;;13.82;12.43;;;;;;;;;;5065801;27;20135;-77
2022/11/13 11:43:26;;;;;;;14.45;12.77;;;;;;;;;;5106247;27;20060;-77
2022/11/13 11:45:52;;;;;;;14.02;12.60;;;;;;;;;;5105406;27;20055;-77
2022/11/13 11:48:27;;;;;;;14.05;12.73;;;;;;;;;;5110303;27;20122;-78
2022/11/13 11:51:11;;;;;;;14.35;12.85;;;;;;;;;;5101707;28;20039;-77
2022/11/13 11:53:37;;;;;;;14.90;12.65;;;;;;;;;;5112093;27;20104;-77
2022/11/13 11:56:03;;;;;;;14.07;12.57;;;;;;;;;;5103995;28;20040;-78
2022/11/13 11:58:36;;;;;;;14.45;12.10;;;;;;;;;;5099475;27;20176;-77
2022/11/13 12:01:09;;;;;;;12.65;11.45;;;;;;;;;;5098720;28;20134;-77
2022/11/13 12:03:47;;;;;;;13.18;11.85;;;;;;;;;;5108037;27;20555;-77
2022/11/13 12:06:25;;;;;;;11.90;10.73;;;;;;;;;;5113407;28;20055;-77
2022/11/13 12:08:56;;;;;;;12.73;11.48;;;;;;;;;;5106997;27;20570;-77
2022/11/13 12:11:22;;;;;;;13.27;11.98;;;;;;;;;;5114241;27;20036;-78
2022/11/13 12:14:03;;;;;;;12.30;11.00;;;;;;;;;;5109235;27;20050;-78
2022/11/13 12:16:35;;;;;;;12.20;11.00;;;;;;;;;;5105564;27;20040;-76
2022/11/13 12:19:07;;;;;;;12.07;10.90;;;;;;;;;;5106499;28;20043;-77
2022/11/13 12:21:40;;;;;;;10.70;9.60;;;;;;;;;;5103280;28;20035;-75
2022/11/13 12:24:15;;;;;;;11.20;10.00;;;;;;;;;;5105038;27;20047;-78
2022/11/13 12:26:46;;;;;;;10.73;9.63;;;;;;;;;;5105944;27;20086;-76
2022/11/13 12:29:22;;;;;;;9.88;8.85;;;;;;;;;;5109194;28;20046;-78
2022/11/13 12:32:00;;;;;;;10.50;9.35;;;;;;;;;;5100398;27;20048;-79
2022/11/13 12:34:35;;;;;;;10.55;9.48;;;;;;;;;;5114148;27;20501;-78
2022/11/13 12:37:04;;;;;;;11.75;9.75;;;;;;;;;;5128861;27;20044;-80
2022/11/13 12:39:34;;;;;;;11.75;9.70;;;;;;;;;;5117250;27;20372;-76
2022/11/13 12:42:20;;;;;;;11.20;9.38;;;;;;;;;;5142590;27;20075;-77
2022/11/13 12:44:53;;;;;;;10.80;9.70;;;;;;;;;;5110037;27;20055;-76
2022/11/13 12:47:19;;;;;;;;;;;;;;;;;;5124905;27;20394;-79
2022/11/13 12:49:45;;;;;;;10.38;9.32;;;;;;;;;;5104708;27;19930;-77
2022/11/13 12:52:22;;;;;;;9.85;8.88;;;;;;;;;;5128868;27;20074;-80
2022/11/13 12:54:49;;;;;;;9.52;8.55;;;;;;;;;;5104626;27;20432;-79
2022/11/13 12:57:15;;;;;;;9.30;8.40;;;;;;;;;;5127825;27;20125;-79
2022/11/13 12:59:46;;;;;;;8.82;7.93;;;;;;;;;;5131241;27;20182;-79
2022/11/13 13:02:15;;;;;;;8.80;7.65;;;;;;;;;;5124579;27;20043;-79
2022/11/13 13:05:00;;;;;;;8.25;7.40;;;;;;;;;;5130800;27;20054;-79
2022/11/13 13:07:26;;;;;;;8.50;7.70;;;;;;;;;;5138903;27;20044;-79
2022/11/13 13:10:10;;;;;;;7.85;7.05;;;;;;;;;;5111331;27;20403;-79
2022/11/13 13:12:55;;;;;;;8.40;7.25;;;;;;;;;;5106803;27;20054;-79
2022/11/13 13:15:27;;;;;;;8.23;7.22;;;;;;;;;;5109095;28;20077;-79
2022/11/13 13:18:09;;;;;;;7.90;7.15;;;;;;;;;;5131662;27;20039;-79
2022/11/13 13:20:37;;;;;;;7.33;6.40;;;;;;;;;;5107841;27;20403;-79
2022/11/13 13:23:03;;;;;;;6.93;6.22;;;;;;;;;;5128900;27;20293;-79
2022/11/13 13:25:34;;;;;;;6.93;6.10;;;;;;;;;;5107446;27;20046;-79
2022/11/13 13:28:01;;;;;;;7.00;6.30;;;;;;;;;;5104056;27;20054;-78
2022/11/13 13:30:28;;;;;;;6.63;5.60;;;;;;;;;;5131358;27;20043;-79
2022/11/13 13:32:57;;;;;;;8.73;6.53;;;;;;;;;;5128106;27;20035;-78
2022/11/13 13:35:29;;;;;;;6.78;6.10;;;;;;;;;;5126721;27;20047;-78
2022/11/13 13:38:15;;;;;;;7.23;6.10;;;;;;;;;;5107414;27;20047;-78
2022/11/13 13:40:48;;;;;;;7.15;6.45;;;;;;;;;;5106361;27;20089;-78
2022/11/13 13:43:35;;;;;;;7.38;6.57;;;;;;;;;;5098003;28;20087;-78
2022/11/13 13:46:01;;;;;;;6.88;6.18;;;;;;;;;;5102316;28;20520;-78
2022/11/13 13:48:28;;;;;;;7.65;6.85;;;;;;;;;;5123866;28;20047;-78
2022/11/13 13:50:54;;;;;;;7.60;6.90;;;;;;;;;;5108139;28;20474;-78
2022/11/13 13:53:26;;;;;;;6.90;6.30;;;;;;;;;;5146860;27;20114;-78
2022/11/13 13:55:53;;;;;;;6.95;6.25;;;;;;;;;;5125918;27;20113;-78
2022/11/13 13:58:24;;;;;;;7.53;6.72;;;;;;;;;;5123568;27;20052;-78
2022/11/13 14:01:00;;;;;;;6.68;6.07;;;;;;;;;;5127629;27;20046;-79
2022/11/13 14:03:28;;;;;;;6.95;6.30;;;;;;;;;;5109787;27;20039;-75
2022/11/13 14:05:54;;;;;;;8.25;6.60;;;;;;;;;;5112243;27;20051;-77
2022/11/13 14:08:22;;;;;;;7.20;5.95;;;;;;;;;;5106790;27;20100;-76
2022/11/13 14:10:52;;;;;;;7.07;6.30;;;;;;;;;;5111145;27;20050;-75
2022/11/13 14:13:29;;;;;;;7.07;6.32;;;;;;;;;;5135177;27;20055;-75
2022/11/13 14:16:03;;;;;;;6.45;5.85;;;;;;;;;;5100436;27;20047;-77
2022/11/13 14:18:29;;;;;;;7.15;6.43;;;;;;;;;;5131355;27;20092;-75
2022/11/13 14:20:59;;;;;;;6.82;6.22;;;;;;;;;;5122706;27;20054;-76
2022/11/13 14:23:28;;;;;;;7.43;6.68;;;;;;;;;;5107482;27;20049;-76
2022/11/13 14:25:55;;;;;;;6.95;6.30;;;;;;;;;;5131735;27;20063;-75
2022/11/13 14:28:23;;;;;;;6.55;5.95;;;;;;;;;;5104951;27;20039;-75
2022/11/13 14:30:57;;;;;;;7.00;6.13;;;;;;;;;;5109179;27;20508;-76